createdAt,value
2018-11-06T00:02:47.936Z,101148.93
2018-11-06T00:05:51.392Z,101152.05
2018-11-06T00:08:54.940Z,101151.60
2018-11-06T00:11:58.502Z,101142.93
2018-11-06T00:15:02.218Z,101136.90
2018-11-06T00:18:06.054Z,101131.92
2018-11-06T00:21:09.675Z,101127.13
2018-11-06T00:24:13.290Z,101136.03
2018-11-06T00:27:16.993Z,101131.45
2018-11-06T00:30:20.642Z,101141.19
2018-11-06T00:33:24.177Z,101141.17
2018-11-06T00:36:27.758Z,101144.29
2018-11-06T00:39:31.447Z,101151.18
2018-11-06T00:42:36.209Z,101154.07
2018-11-06T00:45:39.955Z,101151.75
2018-11-06T00:48:43.463Z,101145.53
2018-11-06T00:51:46.911Z,101148.06
2018-11-06T00:54:50.774Z,101145.30
2018-11-06T00:57:54.277Z,101140.50
2018-11-06T01:00:58.000Z,101128.89
2018-11-06T01:04:08.503Z,101131.70
2018-11-06T01:07:12.276Z,101137.65
2018-11-06T01:10:15.990Z,101135.43
2018-11-06T01:13:19.541Z,101124.79
2018-11-06T01:16:23.235Z,101121.84
2018-11-06T01:19:26.741Z,101122.39
2018-11-06T01:22:30.859Z,101122.44
2018-11-06T01:25:34.410Z,101120.77
2018-11-06T01:28:38.003Z,101117.89
2018-11-06T01:31:41.518Z,101114.98
2018-11-06T01:34:45.065Z,101109.88
2018-11-06T01:37:48.603Z,101109.93
2018-11-06T01:40:52.121Z,101112.14
2018-11-06T01:43:55.531Z,101118.07
2018-11-06T01:46:59.017Z,101112.24
2018-11-06T01:50:02.531Z,101122.26
2018-11-06T01:53:06.191Z,101126.63
2018-11-06T01:56:09.732Z,101133.54
2018-11-06T01:59:13.252Z,101133.26
2018-11-06T02:02:16.821Z,101127.54
2018-11-06T02:05:20.331Z,101136.43
2018-11-06T02:08:23.850Z,101144.64
2018-11-06T02:11:27.503Z,101158.48
2018-11-06T02:14:32.104Z,101163.88
2018-11-06T02:17:35.759Z,101158.25
2018-11-06T02:20:39.342Z,101149.83
2018-11-06T02:23:42.842Z,101146.34
2018-11-06T02:26:46.377Z,101143.14
2018-11-06T02:29:49.819Z,101136.63
2018-11-06T02:32:53.496Z,101126.18
2018-11-06T02:35:57.108Z,101124.16
2018-11-06T02:39:00.620Z,101123.90
2018-11-06T02:42:04.404Z,101126.23
2018-11-06T02:45:08.514Z,101127.59
2018-11-06T02:48:12.063Z,101137.43
2018-11-06T02:51:15.675Z,101136.88
2018-11-06T02:54:19.229Z,101130.36
2018-11-06T02:57:22.695Z,101126.29
2018-11-06T03:00:26.324Z,101124.24
2018-11-06T03:03:34.083Z,101128.23
2018-11-06T03:06:37.576Z,101131.82
2018-11-06T03:09:41.089Z,101141.18
2018-11-06T03:12:45.318Z,101144.76
2018-11-06T03:15:48.925Z,101143.78
2018-11-06T03:18:52.627Z,101132.67
2018-11-06T03:21:56.474Z,101129.13
2018-11-06T03:25:00.149Z,101121.27
2018-11-06T03:28:03.788Z,101123.05
2018-11-06T03:31:07.704Z,101127.20
2018-11-06T03:34:11.342Z,101133.98
2018-11-06T03:37:14.933Z,101130.56
2018-11-06T03:40:18.458Z,101147.41
2018-11-06T03:43:21.996Z,101150.50
2018-11-06T03:46:25.544Z,101153.95
2018-11-06T03:49:29.251Z,101155.26
2018-11-06T03:52:32.735Z,101158.34
2018-11-06T03:55:36.268Z,101155.83
2018-11-06T03:58:40.022Z,101159.44
2018-11-06T04:01:43.663Z,101155.73
2018-11-06T04:04:47.230Z,101159.27
2018-11-06T04:07:51.110Z,101153.95
2018-11-06T04:10:54.699Z,101148.26
2018-11-06T04:13:58.170Z,101144.76
2018-11-06T04:17:01.684Z,101148.27
2018-11-06T04:20:05.915Z,101147.83
2018-11-06T04:23:09.408Z,101149.32
2018-11-06T04:26:12.951Z,101138.09
2018-11-06T04:29:16.421Z,101137.60
2018-11-06T04:32:19.979Z,101130.78
2018-11-06T04:35:23.501Z,101125.67
2018-11-06T04:38:27.040Z,101132.69
2018-11-06T04:41:30.541Z,101127.26
2018-11-06T04:44:34.030Z,101112.75
2018-11-06T04:47:37.678Z,101106.38
2018-11-06T04:50:41.253Z,101098.23
2018-11-06T04:53:44.665Z,101090.79
2018-11-06T04:56:48.158Z,101093.68
2018-11-06T04:59:51.657Z,101098.76
2018-11-06T05:02:55.074Z,101093.18
2018-11-06T05:05:58.547Z,101089.99
2018-11-06T05:09:02.032Z,101076.62
2018-11-06T05:12:05.934Z,101075.03
2018-11-06T05:15:11.896Z,101080.73
2018-11-06T05:18:15.422Z,101085.18
2018-11-06T05:21:18.905Z,101082.43
2018-11-06T05:24:22.433Z,101072.64
2018-11-06T05:27:26.011Z,101068.75
2018-11-06T05:30:29.560Z,101072.97
2018-11-06T05:33:33.028Z,101066.69
2018-11-06T05:36:36.531Z,101075.24
2018-11-06T05:39:51.369Z,101082.91
2018-11-06T05:42:54.805Z,101088.89
2018-11-06T05:45:58.437Z,101089.06
2018-11-06T05:49:01.833Z,101094.39
2018-11-06T05:52:05.716Z,101096.27
2018-11-06T05:55:09.352Z,101101.30
2018-11-06T05:58:12.887Z,101112.43
2018-11-06T06:01:16.453Z,101114.09
2018-11-06T06:04:19.997Z,101108.89
2018-11-06T06:07:23.521Z,101107.81
2018-11-06T06:10:27.553Z,101112.92
2018-11-06T06:13:33.265Z,101116.95
2018-11-06T06:16:36.871Z,101117.16
2018-11-06T06:19:40.419Z,101110.72
2018-11-06T06:22:44.055Z,101112.80
2018-11-06T06:25:48.683Z,101107.69
2018-11-06T06:28:53.227Z,101113.99
2018-11-06T06:31:56.877Z,101109.28
2018-11-06T06:35:00.382Z,101115.20
2018-11-06T06:38:03.902Z,101107.12
2018-11-06T06:41:07.554Z,101098.96
2018-11-06T06:44:11.123Z,101092.89
2018-11-06T06:47:14.697Z,101088.22
2018-11-06T06:50:19.388Z,101080.27
2018-11-06T06:53:22.893Z,101082.63
2018-11-06T06:56:26.461Z,101076.06
2018-11-06T06:59:30.018Z,101081.16
2018-11-06T07:02:33.619Z,101091.33
2018-11-06T07:05:37.090Z,101099.39
2018-11-06T07:08:40.710Z,101098.13
2018-11-06T07:11:44.521Z,101101.92
2018-11-06T07:14:48.083Z,101110.01
2018-11-06T07:17:52.344Z,101111.42
2018-11-06T07:20:55.847Z,101114.15
2018-11-06T07:23:59.288Z,101118.89
2018-11-06T07:27:02.785Z,101119.08
2018-11-06T07:30:08.825Z,101138.43
2018-11-06T07:33:12.301Z,101136.79
2018-11-06T07:36:15.852Z,101148.42
2018-11-06T07:39:19.545Z,101154.79
2018-11-06T07:42:23.010Z,101153.10
2018-11-06T07:45:26.542Z,101152.82
2018-11-06T07:48:30.040Z,101157.97
2018-11-06T07:51:33.546Z,101158.63
2018-11-06T07:54:37.028Z,101148.52
2018-11-06T07:57:40.755Z,101138.07
2018-11-06T08:00:44.238Z,101135.65
2018-11-06T08:03:47.748Z,101144.23
2018-11-06T08:06:51.216Z,101150.55
2018-11-06T08:09:54.776Z,101160.36
2018-11-06T08:12:58.364Z,101156.11
2018-11-06T08:16:01.821Z,101159.83
2018-11-06T08:19:05.435Z,101155.98
2018-11-06T08:22:09.098Z,101154.06
2018-11-06T08:25:13.728Z,101150.03
2018-11-06T08:28:17.201Z,101143.48
2018-11-06T08:31:21.302Z,101145.32
2018-11-06T08:34:24.260Z,101147.70
2018-11-06T08:37:27.841Z,101151.05
2018-11-06T08:40:31.368Z,101146.95
2018-11-06T08:43:34.935Z,101149.79
2018-11-06T08:46:38.547Z,101151.32
2018-11-06T08:49:42.116Z,101147.92
2018-11-06T08:52:45.748Z,101146.00
2018-11-06T08:55:49.211Z,101146.30
2018-11-06T08:58:52.662Z,101149.97
2018-11-06T09:01:56.167Z,101140.73
2018-11-06T09:04:59.618Z,101136.68
2018-11-06T09:08:03.202Z,101126.88
2018-11-06T09:11:06.689Z,101120.36
2018-11-06T09:14:10.162Z,101121.06
2018-11-06T09:17:13.670Z,101125.45
2018-11-06T09:20:17.644Z,101125.07
2018-11-06T09:23:21.088Z,101118.82
2018-11-06T09:26:24.638Z,101126.78
2018-11-06T09:29:28.107Z,101126.02
2018-11-06T09:32:31.580Z,101121.10
2018-11-06T09:35:35.021Z,101116.01
2018-11-06T09:38:38.518Z,101114.61
2018-11-06T09:41:42.372Z,101109.66
2018-11-06T09:44:45.861Z,101110.83
2018-11-06T09:47:49.334Z,101104.60
2018-11-06T09:50:52.745Z,101100.61
2018-11-06T09:53:56.178Z,101097.53
2018-11-06T09:56:59.616Z,101092.32
2018-11-06T10:00:03.170Z,101090.37
2018-11-06T10:03:06.705Z,101092.71
2018-11-06T10:06:10.195Z,101083.09
2018-11-06T10:09:13.741Z,101075.21
2018-11-06T10:12:17.234Z,101074.45
2018-11-06T10:15:21.407Z,101075.08
2018-11-06T10:18:24.849Z,101070.85
2018-11-06T10:21:28.409Z,101064.80
2018-11-06T10:24:31.939Z,101063.47
2018-11-06T10:27:35.563Z,101052.90
2018-11-06T10:30:39.050Z,101055.91
2018-11-06T10:33:43.475Z,101058.01
2018-11-06T10:36:47.013Z,101052.07
2018-11-06T10:39:50.445Z,101055.06
2018-11-06T10:42:53.852Z,101054.46
2018-11-06T10:45:57.326Z,101055.46
2018-11-06T10:49:00.896Z,101054.48
2018-11-06T10:52:04.418Z,101063.01
2018-11-06T10:55:08.491Z,101054.98
2018-11-06T10:58:12.062Z,101045.14
2018-11-06T11:01:20.884Z,101038.61
2018-11-06T11:04:25.571Z,101038.30
2018-11-06T11:07:29.182Z,101030.60
2018-11-06T11:10:32.758Z,101020.54
2018-11-06T11:13:36.293Z,101013.56
2018-11-06T11:16:39.866Z,101012.60
2018-11-06T11:19:43.379Z,101015.25
2018-11-06T11:22:46.851Z,101012.79
2018-11-06T11:25:50.526Z,101009.79
2018-11-06T11:28:54.026Z,101001.09
2018-11-06T11:31:58.699Z,101000.35
2018-11-06T11:35:02.224Z,100994.15
2018-11-06T11:38:05.886Z,100990.96
2018-11-06T11:41:09.534Z,100989.26
2018-11-06T11:44:14.077Z,100982.91
2018-11-06T11:47:17.713Z,100991.27
2018-11-06T11:50:21.443Z,100995.95
2018-11-06T11:53:24.986Z,100987.22
2018-11-06T11:56:28.548Z,100986.64
2018-11-06T11:59:32.093Z,100983.94
2018-11-06T12:02:35.699Z,100982.91
2018-11-06T12:05:39.259Z,100975.02
2018-11-06T12:08:42.871Z,100970.43
2018-11-06T12:11:46.468Z,100968.19
2018-11-06T12:14:50.017Z,100966.13
2018-11-06T12:17:53.643Z,100969.81
2018-11-06T12:20:57.262Z,100959.18
2018-11-06T12:24:00.948Z,100950.81
2018-11-06T12:27:04.435Z,100952.68
2018-11-06T12:30:12.349Z,100956.30
2018-11-06T12:33:15.907Z,100947.62
2018-11-06T12:36:19.571Z,100942.83
2018-11-06T12:39:23.180Z,100935.76
2018-11-06T12:42:26.774Z,100928.31
2018-11-06T12:45:30.675Z,100937.48
2018-11-06T12:48:34.146Z,100936.27
2018-11-06T12:51:37.745Z,100931.14
2018-11-06T12:54:43.259Z,100923.13
2018-11-06T12:57:46.849Z,100921.02
2018-11-06T13:00:50.401Z,100927.09
2018-11-06T13:03:53.981Z,100921.67
2018-11-06T13:06:57.613Z,100920.31
2018-11-06T13:10:01.287Z,100917.03
2018-11-06T13:13:05.090Z,100922.21
2018-11-06T13:16:08.893Z,100915.24
2018-11-06T13:19:12.561Z,100918.14
2018-11-06T13:22:16.067Z,100914.99
2018-11-06T13:25:19.605Z,100904.32
2018-11-06T13:28:23.164Z,100902.23
2018-11-06T13:31:26.713Z,100894.99
2018-11-06T13:34:30.353Z,100891.80
2018-11-06T13:37:34.097Z,100881.93
2018-11-06T13:40:37.675Z,100899.84
2018-11-06T13:43:41.569Z,100895.74
2018-11-06T13:46:45.177Z,100894.42
2018-11-06T13:49:49.110Z,100899.10
2018-11-06T13:52:52.704Z,100899.73
2018-11-06T13:55:56.712Z,100894.63
2018-11-06T13:59:00.339Z,100892.12
2018-11-06T14:02:04.087Z,100892.69
2018-11-06T14:05:07.636Z,100895.55
2018-11-06T14:08:11.257Z,100893.32
2018-11-06T14:11:14.851Z,100898.52
2018-11-06T14:14:18.460Z,100902.82
2018-11-06T14:17:22.030Z,100903.01
2018-11-06T14:20:25.675Z,100907.88
2018-11-06T14:23:29.218Z,100902.31
2018-11-06T14:26:32.744Z,100900.62
2018-11-06T14:29:36.349Z,100903.55
2018-11-06T14:32:40.271Z,100910.40
2018-11-06T14:35:43.896Z,100915.20
2018-11-06T14:38:47.475Z,100927.94
2018-11-06T14:41:51.095Z,100933.73
2018-11-06T14:44:54.688Z,100934.83
2018-11-06T14:47:58.372Z,100941.65
2018-11-06T14:51:01.814Z,100944.13
2018-11-06T14:54:05.581Z,100941.39
2018-11-06T14:57:09.136Z,100947.86
2018-11-06T15:00:16.075Z,100945.91
2018-11-06T15:03:19.737Z,100935.49
2018-11-06T15:06:23.302Z,100937.46
2018-11-06T15:09:26.809Z,100949.35
2018-11-06T15:12:30.501Z,100959.53
2018-11-06T15:15:34.048Z,100969.00
2018-11-06T15:18:37.612Z,100969.83
2018-11-06T15:21:41.148Z,100973.22
2018-11-06T15:24:45.772Z,100978.38
2018-11-06T15:27:49.353Z,100991.58
2018-11-06T15:30:53.957Z,101002.56
2018-11-06T15:33:57.498Z,101018.48
2018-11-06T15:37:02.014Z,101035.18
2018-11-06T15:40:07.080Z,101046.43
2018-11-06T15:43:10.620Z,101056.92
2018-11-06T15:46:14.092Z,101060.59
2018-11-06T15:49:18.032Z,101068.82
2018-11-06T15:52:22.038Z,101079.15
2018-11-06T15:55:25.529Z,101069.24
2018-11-06T15:58:29.194Z,101076.61
2018-11-06T16:01:32.817Z,101092.71
2018-11-06T16:04:36.573Z,101099.27
2018-11-06T16:07:40.253Z,101092.71
2018-11-06T16:10:43.799Z,101103.26
2018-11-06T16:13:47.236Z,101115.64
2018-11-06T16:16:50.703Z,101123.41
2018-11-06T16:19:54.331Z,101124.64
2018-11-06T16:22:57.883Z,101137.91
2018-11-06T16:26:01.411Z,101135.62
2018-11-06T16:29:05.208Z,101136.11
2018-11-06T16:32:08.813Z,101139.78
2018-11-06T16:35:13.965Z,101150.56
2018-11-06T16:38:17.664Z,101154.30
2018-11-06T16:41:21.811Z,101164.03
2018-11-06T16:44:25.592Z,101168.77
2018-11-06T16:47:29.393Z,101175.17
2018-11-06T16:50:33.094Z,101177.65
2018-11-06T16:53:36.706Z,101184.72
2018-11-06T16:56:40.209Z,101190.19
2018-11-06T16:59:43.758Z,101202.29
2018-11-06T17:02:47.102Z,101201.18
2018-11-06T17:05:50.623Z,101210.16
2018-11-06T17:08:54.261Z,101206.96
2018-11-06T17:11:57.881Z,101220.69
2018-11-06T17:15:01.833Z,101222.25
2018-11-06T17:18:05.851Z,101231.60
2018-11-06T17:21:09.328Z,101236.68
2018-11-06T17:24:12.961Z,101233.04
2018-11-06T17:27:16.445Z,101240.26
2018-11-06T17:30:20.231Z,101249.78
2018-11-06T17:33:23.862Z,101249.75
2018-11-06T17:36:27.411Z,101252.71
2018-11-06T17:39:31.010Z,101259.63
2018-11-06T17:42:35.613Z,101264.15
2018-11-06T17:45:40.853Z,101264.40
2018-11-06T17:48:44.367Z,101267.41
2018-11-06T17:51:47.916Z,101271.05
2018-11-06T17:54:51.370Z,101274.99
2018-11-06T17:57:54.893Z,101278.32
2018-11-06T18:00:58.302Z,101280.43
2018-11-06T18:04:01.940Z,101278.02
2018-11-06T18:07:05.524Z,101276.31
2018-11-06T18:10:10.307Z,101284.60
2018-11-06T18:13:14.128Z,101286.78
2018-11-06T18:16:17.667Z,101294.90
2018-11-06T18:19:21.077Z,101291.14
2018-11-06T18:22:24.623Z,101303.59
2018-11-06T18:25:28.345Z,101299.44
2018-11-06T18:28:31.824Z,101301.58
2018-11-06T18:31:35.591Z,101305.96
2018-11-06T18:34:39.345Z,101302.48
2018-11-06T18:37:43.172Z,101304.46
2018-11-06T18:40:46.788Z,101303.10
2018-11-06T18:43:50.328Z,101304.27
2018-11-06T18:46:53.906Z,101308.95
2018-11-06T18:49:57.636Z,101303.57
2018-11-06T18:53:01.147Z,101296.30
2018-11-06T18:56:05.080Z,101297.12
2018-11-06T18:59:08.739Z,101301.41
2018-11-06T19:02:12.293Z,101301.85
2018-11-06T19:05:16.504Z,101302.24
2018-11-06T19:08:20.163Z,101304.30
2018-11-06T19:11:23.689Z,101302.23
2018-11-06T19:14:27.259Z,101297.95
2018-11-06T19:17:30.829Z,101295.63
2018-11-06T19:20:34.456Z,101298.89
2018-11-06T19:23:38.036Z,101295.48
2018-11-06T19:26:41.539Z,101309.15
2018-11-06T19:29:45.055Z,101304.83
2018-11-06T19:32:48.966Z,101305.12
2018-11-06T19:35:52.515Z,101301.05
2018-11-06T19:38:56.074Z,101304.62
2018-11-06T19:41:59.561Z,101306.16
2018-11-06T19:45:03.076Z,101321.37
2018-11-06T19:48:06.673Z,101325.91
2018-11-06T19:51:10.192Z,101320.86
2018-11-06T19:54:13.835Z,101330.21
2018-11-06T19:57:17.243Z,101325.91
2018-11-06T20:00:22.501Z,101337.37
2018-11-06T20:03:26.025Z,101341.05
2018-11-06T20:06:29.551Z,101338.36
2018-11-06T20:09:33.055Z,101328.72
2018-11-06T20:12:36.760Z,101327.13
2018-11-06T20:15:40.631Z,101333.14
2018-11-06T20:18:44.832Z,101329.69
2018-11-06T20:21:49.634Z,101318.25
2018-11-06T20:24:53.053Z,101322.87
2018-11-06T20:27:56.597Z,101323.79
2018-11-06T20:31:00.099Z,101321.61
2018-11-06T20:34:03.749Z,101325.45
2018-11-06T20:37:07.730Z,101326.28
2018-11-06T20:40:14.346Z,101335.23
2018-11-06T20:43:18.080Z,101334.38
2018-11-06T20:46:21.507Z,101326.11
2018-11-06T20:49:25.065Z,101322.13
2018-11-06T20:52:28.596Z,101327.20
2018-11-06T20:55:32.107Z,101333.44
2018-11-06T20:58:35.691Z,101333.65
2018-11-06T21:01:39.212Z,101339.42
2018-11-06T21:04:42.758Z,101336.36
2018-11-06T21:07:46.939Z,101340.60
2018-11-06T21:10:50.401Z,101339.17
2018-11-06T21:13:53.928Z,101339.15
2018-11-06T21:16:57.485Z,101341.85
2018-11-06T21:20:01.150Z,101342.45
2018-11-06T21:23:04.715Z,101345.08
2018-11-06T21:26:08.307Z,101338.17
2018-11-06T21:29:11.824Z,101341.52
2018-11-06T21:32:15.395Z,101339.63
2018-11-06T21:35:18.918Z,101344.85
2018-11-06T21:38:22.374Z,101354.90
2018-11-06T21:41:25.894Z,101362.96
2018-11-06T21:44:29.416Z,101362.06
2018-11-06T21:47:32.894Z,101360.35
2018-11-06T21:50:36.449Z,101356.72
2018-11-06T21:53:39.951Z,101355.55
2018-11-06T21:56:43.591Z,101363.08
2018-11-06T21:59:47.120Z,101368.11
2018-11-06T22:02:51.641Z,101371.73
2018-11-06T22:05:55.195Z,101377.08
2018-11-06T22:08:58.662Z,101381.35
2018-11-06T22:12:02.177Z,101382.70
2018-11-06T22:15:07.095Z,101382.19
2018-11-06T22:18:10.541Z,101376.71
2018-11-06T22:21:13.979Z,101378.20
2018-11-06T22:24:17.542Z,101388.92
2018-11-06T22:27:20.987Z,101397.06
2018-11-06T22:30:24.462Z,101394.96
2018-11-06T22:33:27.919Z,101392.06
2018-11-06T22:36:31.378Z,101395.16
2018-11-06T22:39:34.904Z,101401.72
2018-11-06T22:42:38.691Z,101405.45
2018-11-06T22:45:42.222Z,101407.99
2018-11-06T22:48:45.701Z,101407.51
2018-11-06T22:51:49.210Z,101408.65
2018-11-06T22:54:53.649Z,101399.64
2018-11-06T22:57:57.222Z,101401.48
2018-11-06T23:01:06.091Z,101394.68
2018-11-06T23:04:09.566Z,101389.71
2018-11-06T23:07:18.596Z,101392.82
2018-11-06T23:10:22.052Z,101396.11
2018-11-06T23:13:25.836Z,101387.31
2018-11-06T23:16:29.402Z,101382.81
2018-11-06T23:19:32.955Z,101374.55
2018-11-06T23:22:36.421Z,101375.65
2018-11-06T23:25:40.152Z,101371.73
2018-11-06T23:28:43.702Z,101373.74
2018-11-06T23:31:47.424Z,101375.48
2018-11-06T23:34:50.861Z,101368.34
2018-11-06T23:37:54.457Z,101372.97
2018-11-06T23:40:58.055Z,101369.72
2018-11-06T23:44:01.730Z,101374.18
2018-11-06T23:47:05.479Z,101377.42
2018-11-06T23:50:10.130Z,101382.59
2018-11-06T23:53:13.684Z,101385.82
2018-11-06T23:56:17.344Z,101393.83
2018-11-06T23:59:21.970Z,101389.21
